Time;durP1;ratioP1;P1;durP2;ratioP2;P2;SDS_P1;SDS_P2;PMS_P1;PMS_P2;Temp;Humidity;BMP_temperature;BMP_pressure;BME280_temperature;BME280_humidity;BME280_pressure;Samples;Min_cycle;Max_cycle;Signal;HPM_P1;HPM_P2
2021/04/13 00:02:13;;;;;;;;;;;;;;;28.63;21.57;101077.94;5076794;28;978;-35
2021/04/13 00:04:38;;;;;;;;;;;;;;;28.22;22.33;101069.19;5075989;28;819;-35
2021/04/13 00:07:04;;;;;;;;;;;;;;;28.36;21.97;101070.25;5077018;28;744;-36
2021/04/13 00:09:30;;;;;;;;;;;;;;;28.62;21.83;101059.19;5077019;28;764;-34
2021/04/13 00:12:00;;;;;;;;;;;;;;;28.77;21.60;101065.44;5077200;28;823;-33
2021/04/13 00:14:26;;;;;;;;;;;;;;;28.70;21.60;101072.63;5076730;28;1262;-33
2021/04/13 00:16:52;;;;;;;;;;;;;;;28.22;22.40;101065.63;5076366;28;895;-34
2021/04/13 00:19:20;;;;;;;;;;;;;;;28.21;22.30;101064.78;5077078;28;1980;-33
2021/04/13 00:21:46;;;;;;;;;;;;;;;28.57;22.21;101067.84;5076887;28;806;-33
2021/04/13 00:24:12;;;;;;;;;;;;;;;28.67;21.67;101063.03;5076676;28;835;-37
2021/04/13 00:26:37;;;;;;;;;;;;;;;28.67;21.88;101054.03;5076833;28;760;-34
2021/04/13 00:29:07;;;;;;;;;;;;;;;28.24;22.66;101050.88;5076685;28;811;-36
2021/04/13 00:31:47;;;;;;;;;;;;;;;28.25;22.72;101054.44;5074671;28;974;-36
2021/04/13 00:34:19;;;;;;;;;;;;;;;28.61;21.85;101047.53;5075527;28;743;-37
2021/04/13 00:36:44;;;;;;;;;;;;;;;28.73;22.06;101037.06;5076497;28;787;-33
2021/04/13 00:39:17;;;;;;;;;;;;;;;28.62;21.84;101046.50;5076662;28;1977;-34
2021/04/13 00:41:47;;;;;;;;;;;;;;;28.27;22.42;101044.28;5076213;28;875;-32
2021/04/13 00:44:12;;;;;;;;;;;;;;;28.32;22.55;101043.72;5076955;28;770;-37
2021/04/13 00:46:52;;;;;;;;;;;;;;;28.66;22.00;101039.66;5077591;28;954;-32
2021/04/13 00:49:20;;;;;;;;;;;;;;;28.79;22.09;101049.00;5096456;28;849;-33
2021/04/13 00:51:46;;;;;;;;;;;;;;;28.75;22.00;101048.53;5078539;28;843;-33
2021/04/13 00:54:25;;;;;;;;;;;;;;;28.41;22.42;101048.03;5078455;28;820;-37
2021/04/13 00:56:51;;;;;;;;;;;;;;;28.22;22.40;101052.09;5078563;28;994;-36
2021/04/13 00:59:17;;;;;;;;;;;;;;;28.47;22.28;101052.75;5096616;28;1972;-31
2021/04/13 01:01:43;;;;;;;;;;;;;;;28.69;22.23;101052.00;5078365;28;1022;-38
2021/04/13 01:04:09;;;;;;;;;;;;;;;28.69;21.90;101049.28;5078168;28;874;-33
2021/04/13 01:06:35;;;;;;;;;;;;;;;28.39;22.69;101049.28;5096548;28;827;-34
2021/04/13 01:09:06;;;;;;;;;;;;;;;28.30;22.53;101051.19;5096357;28;868;-37
2021/04/13 01:11:33;;;;;;;;;;;;;;;28.62;22.25;101049.19;5096103;28;853;-37
2021/04/13 01:14:00;;;;;;;;;;;;;;;28.70;22.49;101059.09;5096380;28;878;-37
2021/04/13 01:16:30;;;;;;;;;;;;;;;28.78;22.04;101053.56;5093157;28;1296;-38
2021/04/13 01:18:57;;;;;;;;;;;;;;;28.60;22.50;101062.06;5057848;28;1964;-38
2021/04/13 01:21:31;;;;;;;;;;;;;;;28.53;22.48;101061.16;5058442;28;867;-33
2021/04/13 01:24:09;;;;;;;;;;;;;;;28.47;22.53;101051.88;5079953;28;752;-33
2021/04/13 01:26:34;;;;;;;;;;;;;;;28.71;22.18;101050.78;5063470;28;1485;-33
2021/04/13 01:29:00;;;;;;;;;;;;;;;28.79;22.00;101047.16;5062187;28;736;-35
2021/04/13 01:31:46;;;;;;;;;;;;;;;28.68;22.38;101039.47;5079756;28;1034;-33
2021/04/13 01:34:14;;;;;;;;;;;;;;;28.33;22.75;101048.13;5080158;28;849;-37
2021/04/13 01:36:42;;;;;;;;;;;;;;;28.51;22.69;101044.25;5079772;28;774;-38
2021/04/13 01:39:08;;;;;;;;;;;;;;;28.86;22.26;101049.97;5079554;28;1964;-36
2021/04/13 01:41:44;;;;;;;;;;;;;;;28.87;22.02;101046.22;5080445;28;859;-33
2021/04/13 01:44:09;;;;;;;;;;;;;;;28.87;22.07;101038.09;5062865;28;827;-38
2021/04/13 01:46:35;;;;;;;;;;;;;;;29.10;22.25;101037.16;5061337;28;959;-33
2021/04/13 01:49:00;;;;;;;;;;;;;;;29.15;21.65;101036.56;5117130;28;852;-38
2021/04/13 01:51:25;;;;;;;;;;;;;;;28.76;22.10;101035.84;5120226;28;771;-33
2021/04/13 01:53:51;;;;;;;;;;;;;;;28.60;22.42;101033.16;5101841;28;1214;-33
2021/04/13 01:56:29;;;;;;;;;;;;;;;28.87;22.08;101029.13;5102708;28;742;-34
2021/04/13 01:58:58;;;;;;;;;;;;;;;29.06;22.18;101030.44;5101575;28;2029;-32
2021/04/13 02:01:28;;;;;;;;;;;;;;;29.11;21.92;101032.56;5098597;28;961;-36
2021/04/13 02:04:02;;;;;;;;;;;;;;;28.83;22.18;101025.94;5063103;28;813;-31
2021/04/13 02:06:30;;;;;;;;;;;;;;;28.76;22.28;101030.44;5062011;28;754;-33
2021/04/13 02:09:00;;;;;;;;;;;;;;;29.06;22.22;101030.44;5062141;28;757;-34
2021/04/13 02:11:26;;;;;;;;;;;;;;;29.29;22.05;101037.56;5062165;28;752;-33
2021/04/13 02:13:54;;;;;;;;;;;;;;;29.18;22.11;101036.19;5061409;28;815;-37
2021/04/13 02:16:21;;;;;;;;;;;;;;;29.30;22.02;101026.53;5078577;28;1270;-33
2021/04/13 02:18:47;;;;;;;;;;;;;;;29.18;22.01;101034.31;5061617;28;764;-32
2021/04/13 02:21:29;;;;;;;;;;;;;;;28.80;22.14;101019.03;5078753;28;1957;-33
2021/04/13 02:23:59;;;;;;;;;;;;;;;28.91;22.18;101017.72;5079310;28;815;-34
2021/04/13 02:26:24;;;;;;;;;;;;;;;29.01;22.36;101012.03;5079015;28;883;-32
2021/04/13 02:28:50;;;;;;;;;;;;;;;29.16;22.04;101003.88;5061332;28;784;-34
2021/04/13 02:31:36;;;;;;;;;;;;;;;29.06;21.91;101011.47;5078752;28;979;-31
2021/04/13 02:34:01;;;;;;;;;;;;;;;28.80;22.34;101010.06;5062364;28;1993;-33
2021/04/13 02:36:27;;;;;;;;;;;;;;;29.06;22.51;101008.78;5078508;28;871;-33
2021/04/13 02:38:52;;;;;;;;;;;;;;;29.28;22.02;101008.81;5061279;28;855;-34
2021/04/13 02:41:21;;;;;;;;;;;;;;;29.34;21.95;101008.84;5060820;28;1898;-35
2021/04/13 02:43:49;;;;;;;;;;;;;;;29.33;22.08;101004.47;5078360;28;816;-34
2021/04/13 02:46:15;;;;;;;;;;;;;;;29.37;21.75;101007.66;5060686;28;951;-29
2021/04/13 02:48:43;;;;;;;;;;;;;;;29.08;22.25;101009.41;5060774;28;780;-37
2021/04/13 02:51:12;;;;;;;;;;;;;;;28.89;22.48;101008.09;5060890;28;850;-37
2021/04/13 02:53:56;;;;;;;;;;;;;;;29.09;22.33;100997.56;5061103;28;756;-30
2021/04/13 02:56:34;;;;;;;;;;;;;;;29.19;22.17;101003.50;5061039;28;734;-33
2021/04/13 02:59:16;;;;;;;;;;;;;;;29.01;22.27;101000.38;5078330;28;1982;-34
2021/04/13 03:01:59;;;;;;;;;;;;;;;28.77;22.60;101000.47;5077699;28;955;-33
2021/04/13 03:04:24;;;;;;;;;;;;;;;29.09;22.42;100989.44;5060921;28;818;-37
2021/04/13 03:06:53;;;;;;;;;;;;;;;29.22;22.20;101002.28;5078065;28;851;-33
2021/04/13 03:09:23;;;;;;;;;;;;;;;29.21;22.29;100998.72;5060509;28;794;-35
2021/04/13 03:11:50;;;;;;;;;;;;;;;29.13;22.31;100995.31;5078496;28;780;-38
2021/04/13 03:14:19;;;;;;;;;;;;;;;28.20;21.86;100997.34;5059714;28;1397;-34
2021/04/13 03:16:45;;;;;;;;;;;;;;;26.38;19.67;101001.75;5059760;28;959;-35
2021/04/13 03:19:11;;;;;;;;;;;;;;;25.11;20.65;100995.56;5078153;28;1921;-31
2021/04/13 03:21:37;;;;;;;;;;;;;;;24.33;20.09;100993.66;5076574;28;791;-30
2021/04/13 03:24:02;;;;;;;;;;;;;;;23.95;21.06;100998.38;5076619;28;816;-34
2021/04/13 03:26:30;;;;;;;;;;;;;;;23.73;22.80;100989.78;5076541;28;1105;-37
2021/04/13 03:28:56;;;;;;;;;;;;;;;25.35;22.69;101007.41;5077257;28;784;-32
2021/04/13 03:31:22;;;;;;;;;;;;;;;25.51;24.10;101003.03;5076117;28;950;-36
2021/04/13 03:33:47;;;;;;;;;;;;;;;25.47;24.45;101010.63;5076479;28;784;-32
2021/04/13 03:36:12;;;;;;;;;;;;;;;25.82;23.72;101015.06;5075868;28;867;-33
2021/04/13 03:38:37;;;;;;;;;;;;;;;26.36;22.91;101014.56;5078160;28;827;-34
2021/04/13 03:41:03;;;;;;;;;;;;;;;26.52;22.98;101020.94;5076675;28;1897;-33
2021/04/13 03:43:28;;;;;;;;;;;;;;;25.80;21.33;101017.94;5076019;28;840;-37
2021/04/13 03:45:55;;;;;;;;;;;;;;;25.28;20.99;101009.91;5076020;28;772;-32
2021/04/13 03:48:21;;;;;;;;;;;;;;;25.59;21.04;101013.81;5075616;28;943;-34
2021/04/13 03:50:47;;;;;;;;;;;;;;;25.58;20.65;101011.31;5075977;28;882;-36
2021/04/13 03:53:13;;;;;;;;;;;;;;;25.71;20.33;101019.78;5094852;28;1477;-39
2021/04/13 03:55:38;;;;;;;;;;;;;;;23.72;22.35;101010.44;5097475;28;744;-31
2021/04/13 03:58:20;;;;;;;;;;;;;;;23.12;23.34;101012.63;5097484;28;824;-34
2021/04/13 04:00:45;;;;;;;;;;;;;;;23.00;23.22;101009.28;5097177;28;1893;-32
2021/04/13 04:03:10;;;;;;;;;;;;;;;22.39;24.04;101006.09;5062509;28;962;-35
2021/04/13 04:05:43;;;;;;;;;;;;;;;22.15;24.42;101010.13;5075855;28;736;-35
2021/04/13 04:08:14;;;;;;;;;;;;;;;22.00;24.81;101005.16;5077224;28;892;-37
2021/04/13 04:10:42;;;;;;;;;;;;;;;22.37;24.44;101002.75;5091689;28;833;-34
2021/04/13 04:13:09;;;;;;;;;;;;;;;22.74;23.81;101001.94;5097204;28;826;-37
2021/04/13 04:15:38;;;;;;;;;;;;;;;22.81;24.01;101004.03;5079370;28;1295;-39
2021/04/13 04:18:09;;;;;;;;;;;;;;;22.85;24.02;101002.75;5080980;28;993;-43
2021/04/13 04:20:35;;;;;;;;;;;;;;;22.95;24.09;101008.06;5070192;28;2003;-37
2021/04/13 04:23:00;;;;;;;;;;;;;;;22.94;24.24;100999.16;5061639;28;1006;-40
2021/04/13 04:25:29;;;;;;;;;;;;;;;22.81;24.66;101002.19;5059145;28;738;-41
2021/04/13 04:27:54;;;;;;;;;;;;;;;22.81;24.81;100999.50;5076485;28;1140;-36
2021/04/13 04:30:23;;;;;;;;;;;;;;;22.95;24.83;101005.38;5058644;28;1068;-39
2021/04/13 04:32:48;;;;;;;;;;;;;;;22.85;25.04;101000.06;5076641;28;835;-35
2021/04/13 04:35:29;;;;;;;;;;;;;;;22.61;25.39;101001.41;5076556;28;927;-34
2021/04/13 04:37:57;;;;;;;;;;;;;;;22.68;25.49;101002.53;5077314;28;823;-37
2021/04/13 04:40:25;;;;;;;;;;;;;;;22.69;25.56;101004.22;5076726;28;1898;-43
2021/04/13 04:42:57;;;;;;;;;;;;;;;22.41;26.01;101008.63;5076340;28;756;-39
2021/04/13 04:45:41;;;;;;;;;;;;;;;22.32;26.10;101003.16;5076384;28;806;-41
2021/04/13 04:48:25;;;;;;;;;;;;;;;22.56;26.10;101003.66;5076733;28;820;-35
2021/04/13 04:50:54;;;;;;;;;;;;;;;22.50;25.85;100997.88;5081437;28;999;-36
2021/04/13 04:53:19;;;;;;;;;;;;;;;22.50;26.16;100997.88;5096870;28;850;-39
2021/04/13 04:55:51;;;;;;;;;;;;;;;22.54;26.35;100987.72;5096787;28;846;-35
2021/04/13 04:58:17;;;;;;;;;;;;;;;22.48;26.52;100989.16;5077791;28;794;-36
2021/04/13 05:00:42;;;;;;;;;;;;;;;22.34;26.87;100981.56;5096774;28;1968;-38
2021/04/13 05:03:07;;;;;;;;;;;;;;;22.36;27.34;100985.81;5096621;28;864;-35
2021/04/13 05:05:33;;;;;;;;;;;;;;;22.42;27.23;100979.00;5092470;28;1144;-38
2021/04/13 05:07:58;;;;;;;;;;;;;;;22.24;27.53;100982.44;5076452;28;796;-41
2021/04/13 05:10:23;;;;;;;;;;;;;;;21.96;28.15;100987.72;5076142;28;700;-37
2021/04/13 05:12:49;;;;;;;;;;;;;;;21.87;28.14;100984.03;5075766;28;874;-40
2021/04/13 05:15:14;;;;;;;;;;;;;;;22.08;28.48;100983.03;5077672;28;1154;-38
2021/04/13 05:17:39;;;;;;;;;;;;;;;21.84;30.03;100986.16;5096109;28;874;-35
2021/04/13 05:20:05;;;;;;;;;;;;;;;21.93;29.66;100979.97;5096091;28;1963;-36
2021/04/13 05:22:30;;;;;;;;;;;;;;;22.01;29.99;100973.88;5077017;28;1001;-43
2021/04/13 05:24:55;;;;;;;;;;;;;;;22.15;29.55;100972.59;5076435;28;794;-41
2021/04/13 05:27:21;;;;;;;;;;;;;;;22.01;29.99;100968.53;5075563;28;866;-43
2021/04/13 05:29:46;;;;;;;;;;;;;;;21.97;30.18;100972.50;5076025;28;855;-38
2021/04/13 05:32:12;;;;;;;;;;;;;;;21.91;30.79;100976.56;5076147;28;867;-34
2021/04/13 05:34:37;;;;;;;;;;;;;;;22.62;29.35;100977.13;5075898;28;775;-39
2021/04/13 05:37:02;;;;;;;;;;;;;;;22.70;29.07;100979.09;5075800;28;994;-36
2021/04/13 05:39:28;;;;;;;;;;;;;;;22.63;28.90;100978.00;5075816;28;1906;-37
2021/04/13 05:41:53;;;;;;;;;;;;;;;22.92;28.52;100979.69;5074951;28;800;-37
2021/04/13 05:44:21;;;;;;;;;;;;;;;22.77;28.53;100973.16;5075224;28;744;-41
2021/04/13 05:46:46;;;;;;;;;;;;;;;22.60;28.93;100976.47;5075817;28;759;-40
2021/04/13 05:49:11;;;;;;;;;;;;;;;23.02;28.36;100982.34;5076194;28;779;-37
2021/04/13 05:51:37;;;;;;;;;;;;;;;22.91;28.84;100983.38;5075402;28;954;-38
2021/04/13 05:54:02;;;;;;;;;;;;;;;22.84;28.97;100977.75;5075830;28;783;-38
2021/04/13 05:56:31;;;;;;;;;;;;;;;23.40;28.09;100982.28;5075745;28;812;-40
2021/04/13 05:58:56;;;;;;;;;;;;;;;24.16;26.73;100975.69;5075574;28;788;-40
2021/04/13 06:01:23;;;;;;;;;;;;;;;23.31;27.58;100972.41;5074920;28;1894;-35
2021/04/13 06:03:48;;;;;;;;;;;;;;;23.05;27.92;100978.50;5074851;28;784;-40
2021/04/13 06:06:14;;;;;;;;;;;;;;;23.20;28.05;100971.66;5075134;28;1006;-36
2021/04/13 06:08:39;;;;;;;;;;;;;;;23.07;28.15;100971.97;5077205;28;750;-39
2021/04/13 06:11:04;;;;;;;;;;;;;;;23.04;27.77;100974.16;5079643;28;871;-41
2021/04/13 06:13:30;;;;;;;;;;;;;;;23.02;27.74;100976.13;5078742;28;1012;-40
2021/04/13 06:15:56;;;;;;;;;;;;;;;23.07;27.56;100982.72;5086108;28;1175;-37
2021/04/13 06:18:21;;;;;;;;;;;;;;;23.17;27.50;100973.78;5099776;28;829;-41
2021/04/13 06:20:47;;;;;;;;;;;;;;;23.13;27.87;100973.22;5093680;28;1922;-39
2021/04/13 06:23:12;;;;;;;;;;;;;;;23.34;27.71;100982.84;5079073;28;828;-37
2021/04/13 06:25:37;;;;;;;;;;;;;;;23.33;28.17;100975.78;5079291;28;824;-37
2021/04/13 06:28:03;;;;;;;;;;;;;;;23.29;28.43;100988.66;5078853;28;992;-36
2021/04/13 06:30:29;;;;;;;;;;;;;;;23.63;28.00;100980.97;5079222;28;760;-41
2021/04/13 06:32:54;;;;;;;;;;;;;;;23.72;27.78;100983.56;5079103;28;748;-39
2021/04/13 06:35:20;;;;;;;;;;;;;;;23.91;27.64;100986.25;5078175;28;1013;-40
2021/04/13 06:37:45;;;;;;;;;;;;;;;23.91;27.50;100980.88;5079029;28;823;-42
2021/04/13 06:40:28;;;;;;;;;;;;;;;24.14;27.41;100977.69;5077271;28;1905;-39
2021/04/13 06:42:53;;;;;;;;;;;;;;;24.25;27.09;100980.16;5077221;28;832;-41
2021/04/13 06:45:20;;;;;;;;;;;;;;;24.19;27.18;100978.09;5079426;28;767;-37
2021/04/13 06:47:51;;;;;;;;;;;;;;;24.18;27.28;100971.03;5077224;28;823;-39
2021/04/13 06:50:26;;;;;;;;;;;;;;;24.37;27.05;100971.81;5078387;28;974;-43
2021/04/13 06:53:02;;;;;;;;;;;;;;;24.32;27.09;100969.63;5079322;28;759;-41
2021/04/13 06:55:45;;;;;;;;;;;;;;;24.43;26.95;100969.34;5078791;28;779;-40
2021/04/13 06:58:29;;;;;;;;;;;;;;;24.56;26.69;100970.75;5078788;28;827;-40
2021/04/13 07:01:00;;;;;;;;;;;;;;;24.45;26.84;100970.03;5078497;28;1959;-39
2021/04/13 07:03:44;;;;;;;;;;;;;;;24.58;26.65;100969.59;5077207;28;823;-41
2021/04/13 07:06:10;;;;;;;;;;;;;;;24.60;26.76;100964.06;5078389;28;942;-41
2021/04/13 07:08:40;;;;;;;;;;;;;;;24.70;26.58;100961.22;5078457;28;814;-40
2021/04/13 07:11:19;;;;;;;;;;;;;;;24.86;26.42;100965.00;5076916;28;751;-41
2021/04/13 07:13:54;;;;;;;;;;;;;;;24.86;26.41;100959.63;5076865;28;799;-40
2021/04/13 07:16:27;;;;;;;;;;;;;;;24.97;26.26;100955.81;5088608;28;1147;-39
2021/04/13 07:19:11;;;;;;;;;;;;;;;25.00;26.21;100958.19;5080205;28;807;-41
2021/04/13 07:22:02;;;;;;;;;;;;;;;25.01;26.15;100959.84;5085327;28;1041;-39
2021/04/13 07:24:28;;;;;;;;;;;;;;;24.98;26.52;100954.78;5054727;28;1091;-35
2021/04/13 07:26:55;;;;;;;;;;;;;;;25.05;26.33;100961.22;5077866;28;780;-39
2021/04/13 07:29:32;;;;;;;;;;;;;;;25.05;26.44;100953.16;5076855;28;775;-38
2021/04/13 07:32:02;;;;;;;;;;;;;;;25.08;26.26;100952.81;5077008;28;791;-38
2021/04/13 07:34:28;;;;;;;;;;;;;;;25.15;26.22;100953.84;5087790;28;1204;-43
2021/04/13 07:37:04;;;;;;;;;;;;;;;25.19;26.27;100957.88;5083444;28;950;-36
2021/04/13 07:39:29;;;;;;;;;;;;;;;25.24;26.29;100959.25;5060023;28;1902;-34
2021/04/13 07:41:58;;;;;;;;;;;;;;;25.27;26.14;100953.53;5077366;28;764;-37
2021/04/13 07:44:24;;;;;;;;;;;;;;;25.31;26.10;100946.78;5077582;28;807;-36
2021/04/13 07:46:53;;;;;;;;;;;;;;;25.19;26.46;100955.19;5060124;28;914;-41
2021/04/13 07:49:27;;;;;;;;;;;;;;;25.27;26.34;100950.84;5077220;28;808;-41
2021/04/13 07:51:56;;;;;;;;;;;;;;;25.42;26.09;100943.78;5091840;28;994;-38
2021/04/13 07:54:31;;;;;;;;;;;;;;;25.39;26.14;100949.50;5097709;28;807;-40
2021/04/13 07:57:03;;;;;;;;;;;;;;;25.36;26.29;100944.44;5097133;28;828;-37
2021/04/13 07:59:48;;;;;;;;;;;;;;;25.43;26.20;100944.63;5092287;28;1894;-37
2021/04/13 08:02:14;;;;;;;;;;;;;;;25.40;26.50;100942.28;5076426;28;1618;-37
2021/04/13 08:04:40;;;;;;;;;;;;;;;25.54;26.20;100952.38;5094941;28;908;-36
2021/04/13 08:07:11;;;;;;;;;;;;;;;25.40;26.55;100944.97;5063410;28;1203;-37
2021/04/13 08:09:40;;;;;;;;;;;;;;;25.36;26.75;100949.00;5077700;28;958;-36
2021/04/13 08:12:10;;;;;;;;;;;;;;;25.48;26.67;100954.91;5076580;28;1008;-41
2021/04/13 08:14:44;;;;;;;;;;;;;;;25.58;26.34;100947.50;5116644;28;1267;-36
2021/04/13 08:17:18;;;;;;;;;;;;;;;25.56;26.48;100952.22;5064782;28;1182;-40
2021/04/13 08:19:44;;;;;;;;;;;;;;;25.59;26.61;100954.56;5076651;28;1902;-39
2021/04/13 08:22:11;;;;;;;;;;;;;;;25.57;26.50;100951.22;5076702;28;962;-43
2021/04/13 08:24:41;;;;;;;;;;;;;;;25.60;26.70;100947.34;5076670;28;792;-38
2021/04/13 08:27:18;;;;;;;;;;;;;;;25.59;26.55;100946.47;5076239;28;791;-37
2021/04/13 08:29:49;;;;;;;;;;;;;;;25.67;26.50;100943.81;5076697;28;860;-43
2021/04/13 08:32:50;;;;;;;;;;;;;;;25.73;26.66;100941.47;5076312;28;857;-40
2021/04/13 08:35:30;;;;;;;;;;;;;;;25.72;26.47;100951.41;5075593;28;1001;-40
2021/04/13 08:38:16;;;;;;;;;;;;;;;25.83;26.22;100949.38;5076610;28;843;-38
2021/04/13 08:40:45;;;;;;;;;;;;;;;25.73;26.55;100942.31;5075916;28;1894;-37
2021/04/13 08:43:11;;;;;;;;;;;;;;;25.80;26.47;100945.19;5076692;28;738;-40
2021/04/13 08:45:45;;;;;;;;;;;;;;;25.82;26.43;100942.31;5076217;28;859;-43
2021/04/13 08:48:17;;;;;;;;;;;;;;;25.71;26.55;100940.81;5075509;28;764;-39
2021/04/13 08:50:48;;;;;;;;;;;;;;;25.89;26.47;100946.84;5076273;28;950;-37
2021/04/13 08:53:26;;;;;;;;;;;;;;;25.84;26.51;100943.81;5076565;28;824;-40
2021/04/13 08:55:51;;;;;;;;;;;;;;;25.91;26.42;100941.28;5076234;28;783;-39
2021/04/13 08:58:24;;;;;;;;;;;;;;;25.88;26.36;100944.31;5074946;28;1336;-45
2021/04/13 09:00:50;;;;;;;;;;;;;;;25.91;26.43;100939.44;5076922;28;1906;-39
2021/04/13 09:03:16;;;;;;;;;;;;;;;25.89;26.47;100932.53;5076263;28;780;-37
2021/04/13 09:05:42;;;;;;;;;;;;;;;25.92;26.45;100937.59;5075747;28;993;-40
2021/04/13 09:08:27;;;;;;;;;;;;;;;25.97;26.26;100939.78;5076158;28;788;-41
2021/04/13 09:11:08;;;;;;;;;;;;;;;25.96;26.34;100938.09;5075332;28;1675;-40
2021/04/13 09:13:37;;;;;;;;;;;;;;;26.10;25.96;100933.84;5076074;28;784;-43
2021/04/13 09:16:03;;;;;;;;;;;;;;;25.99;26.47;100926.97;5073868;28;1723;-42
2021/04/13 09:18:34;;;;;;;;;;;;;;;26.03;26.19;100918.38;5083552;28;1561;-44
2021/04/13 09:21:02;;;;;;;;;;;;;;;26.09;26.13;100922.22;5084437;28;1879;-44
2021/04/13 09:23:34;;;;;;;;;;;;;;;26.07;26.18;100921.56;5076605;28;1595;-38
2021/04/13 09:26:00;;;;;;;;;;;;;;;26.21;26.09;100919.19;5095871;28;809;-38
2021/04/13 09:28:26;;;;;;;;;;;;;;;26.12;26.25;100913.81;5079375;28;1162;-43
2021/04/13 09:31:00;;;;;;;;;;;;;;;26.21;26.17;100920.00;5094960;28;806;-41
2021/04/13 09:33:30;;;;;;;;;;;;;;;26.15;26.48;100909.91;5083735;28;1656;-41
2021/04/13 09:36:14;;;;;;;;;;;;;;;26.26;26.11;100909.53;5066173;28;2028;-43
2021/04/13 09:38:52;;;;;;;;;;;;;;;26.21;26.25;100911.91;5086946;28;1558;-36
2021/04/13 09:41:18;;;;;;;;;;;;;;;26.23;26.19;100917.97;5075948;28;1987;-38
2021/04/13 09:44:02;;;;;;;;;;;;;;;26.21;26.20;100913.78;5077555;28;792;-38
2021/04/13 09:46:39;;;;;;;;;;;;;;;26.28;26.14;100920.16;5087858;28;1586;-38
2021/04/13 09:49:13;;;;;;;;;;;;;;;26.34;26.15;100913.28;5086062;28;800;-38
2021/04/13 09:51:54;;;;;;;;;;;;;;;26.35;25.98;100910.41;5074229;28;1058;-37
2021/04/13 09:54:21;;;;;;;;;;;;;;;26.43;26.10;100903.28;5078506;28;1613;-38
2021/04/13 09:57:08;;;;;;;;;;;;;;;26.26;26.39;100906.00;5079380;28;850;-43
2021/04/13 09:59:37;;;;;;;;;;;;;;;26.22;26.38;100910.91;5061916;28;1976;-38
2021/04/13 10:02:02;;;;;;;;;;;;;;;26.13;26.46;100906.53;5079335;28;784;-37
2021/04/13 10:04:46;;;;;;;;;;;;;;;26.10;26.49;100909.59;5079794;28;780;-38
2021/04/13 10:07:14;;;;;;;;;;;;;;;26.01;26.80;100896.13;5079258;28;966;-40
2021/04/13 10:09:40;;;;;;;;;;;;;;;26.04;26.71;100893.09;5079247;28;744;-38
2021/04/13 10:12:17;;;;;;;;;;;;;;;25.97;26.88;100891.25;5088669;28;1652;-38
2021/04/13 10:15:15;;;;;;;;;;;;;;;26.23;26.44;100895.56;5099541;28;1051;-35
2021/04/13 10:18:01;;;;;;;;;;;;;;;26.05;25.74;100888.53;5045223;28;1081;-43
2021/04/13 10:20:45;;;;;;;;;;;;;;;25.53;24.49;100896.84;5070274;28;1948;-30
2021/04/13 10:23:20;;;;;;;;;;;;;;;25.17;24.00;100889.06;5098876;28;792;-36
2021/04/13 10:25:54;;;;;;;;;;;;;;;25.06;24.33;100877.63;5099379;28;795;-44
2021/04/13 10:28:23;;;;;;;;;;;;;;;25.02;23.86;100887.03;5099465;28;840;-43
2021/04/13 10:30:48;;;;;;;;;;;;;;;24.29;24.13;100878.53;5081103;28;832;-37
2021/04/13 10:33:16;;;;;;;;;;;;;;;24.00;24.96;100879.69;5097291;28;1436;-39
2021/04/13 10:36:11;;;;;;;;;;;;;;;24.75;24.05;100886.28;5094572;28;926;-43
2021/04/13 10:38:42;;;;;;;;;;;;;;;24.86;23.42;100882.41;5024376;28;1232;-43
2021/04/13 10:41:20;;;;;;;;;;;;;;;25.00;23.43;100874.75;5078823;28;1901;-32
2021/04/13 10:43:58;;;;;;;;;;;;;;;25.06;23.26;100866.00;5079116;28;748;-34
2021/04/13 10:46:24;;;;;;;;;;;;;;;24.89;23.03;100878.56;5087484;28;1618;-45
2021/04/13 10:48:52;;;;;;;;;;;;;;;24.99;23.33;100868.50;5099435;28;799;-36
2021/04/13 10:51:22;;;;;;;;;;;;;;;25.17;24.67;100879.13;5089633;28;1026;-36
2021/04/13 10:53:48;;;;;;;;;;;;;;;25.27;23.94;100878.16;5060376;28;849;-43
2021/04/13 10:56:32;;;;;;;;;;;;;;;25.35;24.38;100866.53;5077402;28;780;-40
2021/04/13 10:59:03;;;;;;;;;;;;;;;25.39;23.41;100874.09;5078890;28;828;-43
2021/04/13 11:01:34;;;;;;;;;;;;;;;25.40;24.27;100870.41;5078120;28;1983;-36
2021/04/13 11:04:12;;;;;;;;;;;;;;;25.59;24.53;100881.84;5078772;28;874;-42
2021/04/13 11:06:46;;;;;;;;;;;;;;;25.49;24.84;100875.81;5090659;28;967;-37
2021/04/13 11:09:30;;;;;;;;;;;;;;;25.37;24.40;100875.28;5098309;28;800;-41
2021/04/13 11:12:13;;;;;;;;;;;;;;;25.37;24.60;100867.22;5098849;28;791;-35
2021/04/13 11:14:43;;;;;;;;;;;;;;;25.42;24.66;100868.38;5098418;28;1153;-37
2021/04/13 11:17:11;;;;;;;;;;;;;;;25.38;24.82;100871.56;5080167;28;1260;-44
2021/04/13 11:19:54;;;;;;;;;;;;;;;25.41;24.51;100866.69;5098620;28;1974;-36
2021/04/13 11:22:20;;;;;;;;;;;;;;;25.40;24.52;100881.19;5079837;28;966;-36
2021/04/13 11:24:51;;;;;;;;;;;;;;;25.25;24.15;100872.94;5078127;28;783;-36
2021/04/13 11:27:52;;;;;;;;;;;;;;;25.29;24.08;100865.38;5076993;28;851;-32
2021/04/13 11:30:35;;;;;;;;;;;;;;;25.40;24.70;100856.94;5015465;28;1249;-43
2021/04/13 11:33:09;;;;;;;;;;;;;;;25.38;24.28;100855.41;5072251;28;1104;-36
2021/04/13 11:35:42;;;;;;;;;;;;;;;25.43;24.50;100863.84;5077714;28;970;-36
2021/04/13 11:38:10;;;;;;;;;;;;;;;25.59;24.72;100859.47;5076474;28;760;-47
2021/04/13 11:40:38;;;;;;;;;;;;;;;25.64;25.32;100854.44;5077945;28;1907;-36
2021/04/13 11:43:03;;;;;;;;;;;;;;;25.62;24.99;100846.50;5077414;28;807;-44
2021/04/13 11:45:35;;;;;;;;;;;;;;;25.60;25.71;100839.59;5078769;28;1578;-35
2021/04/13 11:48:01;;;;;;;;;;;;;;;25.90;25.68;100847.97;5098099;28;779;-30
2021/04/13 11:50:29;;;;;;;;;;;;;;;25.92;25.69;100841.38;5095390;28;966;-33
2021/04/13 11:52:56;;;;;;;;;;;;;;;25.95;25.41;100832.13;5077338;28;821;-29
2021/04/13 11:55:24;;;;;;;;;;;;;;;26.04;25.49;100835.66;5059510;28;812;-27
2021/04/13 11:58:03;;;;;;;;;;;;;;;26.08;25.42;100836.13;5077492;28;869;-34
2021/04/13 12:00:29;;;;;;;;;;;;;;;26.13;25.36;100837.28;5077424;28;1902;-34
2021/04/13 12:03:13;;;;;;;;;;;;;;;26.01;25.43;100833.28;5077555;28;756;-37
2021/04/13 12:05:43;;;;;;;;;;;;;;;25.94;25.77;100832.31;5080998;28;1018;-35
2021/04/13 12:08:08;;;;;;;;;;;;;;;25.74;25.41;100821.91;5079036;28;843;-36
2021/04/13 12:10:34;;;;;;;;;;;;;;;25.38;25.71;100831.19;5079366;28;1456;-36
2021/04/13 12:13:03;;;;;;;;;;;;;;;25.70;25.51;100824.13;5097270;28;857;-45
2021/04/13 12:15:29;;;;;;;;;;;;;;;25.67;25.78;100827.97;5093568;28;1083;-37
2021/04/13 12:17:55;;;;;;;;;;;;;;;25.75;25.80;100824.44;5076954;28;819;-38
2021/04/13 12:20:27;;;;;;;;;;;;;;;25.77;25.76;100825.13;5078119;28;1905;-41
2021/04/13 12:22:53;;;;;;;;;;;;;;;25.73;26.01;100820.22;5096768;28;855;-44
2021/04/13 12:25:37;;;;;;;;;;;;;;;25.65;25.96;100824.63;5079274;28;752;-43
2021/04/13 12:28:02;;;;;;;;;;;;;;;25.61;25.94;100819.72;5097333;28;736;-45
2021/04/13 12:30:29;;;;;;;;;;;;;;;25.73;25.99;100818.38;5096726;28;859;-35
2021/04/13 12:32:55;;;;;;;;;;;;;;;25.74;25.69;100817.34;5096812;28;772;-42
2021/04/13 12:35:39;;;;;;;;;;;;;;;25.75;26.05;100820.91;5077318;28;935;-39
2021/04/13 12:38:24;;;;;;;;;;;;;;;25.71;26.05;100811.50;5076470;28;831;-40
2021/04/13 12:41:04;;;;;;;;;;;;;;;25.77;25.86;100802.72;5076760;28;1901;-45
2021/04/13 12:43:30;;;;;;;;;;;;;;;25.72;26.09;100805.06;5075676;28;807;-36
2021/04/13 12:45:55;;;;;;;;;;;;;;;25.72;25.89;100791.59;5082494;28;1567;-39
2021/04/13 12:48:25;;;;;;;;;;;;;;;25.80;25.97;100797.81;5079050;28;755;-38
2021/04/13 12:50:57;;;;;;;;;;;;;;;25.75;25.71;100799.34;5091447;28;1068;-44
2021/04/13 12:53:24;;;;;;;;;;;;;;;25.55;25.62;100791.63;5075759;28;803;-41
2021/04/13 12:55:59;;;;;;;;;;;;;;;25.72;25.65;100797.00;5076664;28;807;-42
2021/04/13 12:58:27;;;;;;;;;;;;;;;25.60;25.92;100796.47;5076700;28;935;-38
2021/04/13 13:00:54;;;;;;;;;;;;;;;25.62;25.95;100794.47;5057858;28;1902;-44
2021/04/13 13:03:19;;;;;;;;;;;;;;;25.71;26.48;100787.25;5076847;28;835;-39
2021/04/13 13:05:45;;;;;;;;;;;;;;;25.58;26.01;100804.72;5080997;28;971;-38
2021/04/13 13:08:20;;;;;;;;;;;;;;;25.57;25.96;100786.91;5096013;28;787;-38
2021/04/13 13:10:47;;;;;;;;;;;;;;;25.56;25.97;100783.34;5096692;28;857;-38